createdAt,value
2018-01-15T00:01:05.746Z,47.60
2018-01-15T00:03:33.969Z,47.90
2018-01-15T00:06:02.232Z,47.90
2018-01-15T00:08:30.456Z,47.80
2018-01-15T00:10:58.686Z,48.10
2018-01-15T00:13:27.033Z,47.80
2018-01-15T00:15:55.317Z,48.00
2018-01-15T00:18:23.593Z,48.00
2018-01-15T00:20:51.828Z,47.90
2018-01-15T00:23:20.841Z,48.10
2018-01-15T00:25:49.088Z,48.10
2018-01-15T00:28:18.125Z,48.20
2018-01-15T00:30:46.370Z,48.00
2018-01-15T00:33:15.496Z,48.00
2018-01-15T00:35:43.977Z,48.20
2018-01-15T00:38:12.221Z,48.30
2018-01-15T00:40:41.941Z,48.20
2018-01-15T00:43:10.201Z,48.10
2018-01-15T00:45:39.408Z,48.20
2018-01-15T00:48:07.646Z,48.00
2018-01-15T00:50:35.913Z,48.10
2018-01-15T00:53:04.180Z,48.20
2018-01-15T00:55:32.403Z,48.20
2018-01-15T00:58:01.543Z,48.10
2018-01-15T01:00:30.440Z,48.00
2018-01-15T01:02:58.683Z,48.10
2018-01-15T01:05:27.701Z,48.10
2018-01-15T01:07:55.946Z,48.00
2018-01-15T01:10:24.241Z,48.00
2018-01-15T01:12:52.679Z,48.00
2018-01-15T01:15:21.009Z,48.10
2018-01-15T01:17:49.269Z,48.30
2018-01-15T01:20:17.649Z,48.10
2018-01-15T01:22:45.928Z,48.20
2018-01-15T01:25:14.925Z,48.20
2018-01-15T01:27:43.333Z,48.00
2018-01-15T01:30:11.772Z,48.20
2018-01-15T01:32:40.775Z,48.30
2018-01-15T01:35:09.060Z,48.20
2018-01-15T01:37:37.404Z,48.30
2018-01-15T01:40:06.433Z,48.30
2018-01-15T01:42:34.692Z,48.10
2018-01-15T01:45:02.976Z,48.30
2018-01-15T01:47:31.234Z,48.10
2018-01-15T01:49:59.464Z,48.20
2018-01-15T01:52:27.717Z,48.30
2018-01-15T01:54:55.976Z,48.40
2018-01-15T01:57:25.011Z,48.50
2018-01-15T01:59:53.278Z,48.70
2018-01-15T02:02:21.897Z,48.80
2018-01-15T02:04:50.117Z,48.60
2018-01-15T02:07:18.381Z,48.90
2018-01-15T02:09:46.637Z,48.70
2018-01-15T02:12:15.709Z,48.90
2018-01-15T02:14:44.637Z,48.70
2018-01-15T02:17:12.913Z,48.60
2018-01-15T02:19:41.908Z,48.60
2018-01-15T02:22:10.362Z,48.70
2018-01-15T02:24:38.563Z,48.50
2018-01-15T02:27:06.845Z,48.90
2018-01-15T02:29:35.200Z,48.80
2018-01-15T02:32:04.284Z,49.00
2018-01-15T02:34:32.514Z,48.80
2018-01-15T02:37:00.742Z,49.00
2018-01-15T02:39:29.753Z,48.90
2018-01-15T02:41:58.017Z,48.90
2018-01-15T02:44:26.256Z,49.20
2018-01-15T02:46:54.556Z,49.00
2018-01-15T02:49:23.261Z,49.20
2018-01-15T02:51:51.565Z,49.20
2018-01-15T02:54:19.819Z,49.00
2018-01-15T02:56:48.082Z,49.10
2018-01-15T02:59:16.348Z,49.00
2018-01-15T03:01:44.590Z,49.30
2018-01-15T03:04:13.616Z,49.30
2018-01-15T03:06:41.995Z,49.30
2018-01-15T03:09:10.793Z,49.40
2018-01-15T03:11:39.847Z,49.30
2018-01-15T03:14:08.088Z,49.40
2018-01-15T03:16:36.375Z,49.30
2018-01-15T03:19:04.654Z,49.30
2018-01-15T03:21:33.321Z,49.50
2018-01-15T03:24:01.722Z,49.50
2018-01-15T03:26:29.961Z,49.50
2018-01-15T03:28:59.008Z,49.70
2018-01-15T03:31:27.236Z,49.70
2018-01-15T03:33:55.495Z,49.60
2018-01-15T03:36:23.753Z,49.70
2018-01-15T03:38:52.786Z,49.80
2018-01-15T03:41:21.024Z,50.00
2018-01-15T03:43:49.293Z,49.80
2018-01-15T03:46:17.660Z,49.80
2018-01-15T03:48:45.933Z,49.90
2018-01-15T03:51:14.990Z,49.90
2018-01-15T03:53:43.341Z,49.80
2018-01-15T03:56:11.864Z,50.10
2018-01-15T03:58:40.126Z,50.10
2018-01-15T04:01:08.378Z,50.10
2018-01-15T04:03:36.614Z,49.90
2018-01-15T04:06:05.656Z,49.90
2018-01-15T04:08:34.740Z,50.10
2018-01-15T04:11:03.933Z,50.10
2018-01-15T04:13:32.169Z,50.10
2018-01-15T04:16:00.434Z,50.10
2018-01-15T04:18:28.680Z,50.10
2018-01-15T04:20:57.812Z,50.20
2018-01-15T04:23:26.078Z,50.10
2018-01-15T04:25:54.329Z,50.20
2018-01-15T04:28:23.349Z,49.80
2018-01-15T04:30:51.589Z,50.20
2018-01-15T04:33:20.168Z,50.10
2018-01-15T04:35:49.164Z,50.40
2018-01-15T04:38:17.505Z,51.00
2018-01-15T04:40:45.766Z,50.30
2018-01-15T04:43:14.022Z,50.50
2018-01-15T04:45:42.289Z,50.50
2018-01-15T04:48:12.603Z,50.50
2018-01-15T04:50:41.179Z,50.50
2018-01-15T04:53:10.184Z,50.40
2018-01-15T04:55:38.452Z,50.30
2018-01-15T04:58:06.729Z,50.30
2018-01-15T05:00:34.970Z,50.50
2018-01-15T05:03:03.241Z,50.40
2018-01-15T05:05:31.550Z,50.50
2018-01-15T05:07:59.801Z,50.70
2018-01-15T05:10:28.069Z,50.50
2018-01-15T05:12:56.332Z,50.50
2018-01-15T05:15:24.581Z,50.50
2018-01-15T05:17:52.845Z,50.40
2018-01-15T05:20:21.836Z,50.60
2018-01-15T05:22:50.119Z,50.50
2018-01-15T05:25:18.368Z,50.60
2018-01-15T05:27:46.603Z,50.80
2018-01-15T05:30:14.889Z,50.80
2018-01-15T05:32:43.163Z,50.90
2018-01-15T05:35:11.478Z,50.90
2018-01-15T05:37:39.714Z,50.80
2018-01-15T05:40:07.956Z,51.00
2018-01-15T05:42:36.209Z,50.20
2018-01-15T05:45:04.466Z,51.00
2018-01-15T05:47:33.473Z,51.00
2018-01-15T05:50:01.962Z,51.00
2018-01-15T05:52:31.152Z,50.90
2018-01-15T05:54:59.400Z,50.90
2018-01-15T05:57:27.661Z,50.90
2018-01-15T05:59:55.949Z,51.00
2018-01-15T06:02:24.258Z,51.00
2018-01-15T06:04:52.545Z,51.00
2018-01-15T06:07:20.820Z,51.00
2018-01-15T06:09:49.075Z,51.10
2018-01-15T06:12:17.340Z,51.10
2018-01-15T06:14:45.659Z,51.20
2018-01-15T06:17:13.942Z,51.00
2018-01-15T06:19:42.217Z,51.60
2018-01-15T06:22:10.453Z,51.10
2018-01-15T06:24:38.714Z,51.20
2018-01-15T06:27:06.975Z,51.10
2018-01-15T06:29:35.313Z,51.20
2018-01-15T06:32:03.545Z,51.30
2018-01-15T06:34:31.950Z,51.20
2018-01-15T06:37:00.209Z,51.00
2018-01-15T06:39:28.449Z,51.10
2018-01-15T06:41:56.694Z,51.30
2018-01-15T06:44:24.934Z,51.40
2018-01-15T06:46:54.817Z,51.50
2018-01-15T06:49:23.076Z,51.30
2018-01-15T06:51:52.206Z,51.50
2018-01-15T06:54:20.484Z,51.50
2018-01-15T06:56:48.734Z,51.80
2018-01-15T06:59:16.994Z,51.60
2018-01-15T07:01:45.268Z,51.70
2018-01-15T07:04:14.289Z,51.70
2018-01-15T07:06:42.681Z,51.70
2018-01-15T07:09:10.995Z,51.60
2018-01-15T07:11:39.233Z,51.70
2018-01-15T07:14:07.490Z,51.90
2018-01-15T07:16:35.835Z,52.00
2018-01-15T07:19:05.059Z,52.10
2018-01-15T07:21:33.309Z,52.10
2018-01-15T07:24:01.783Z,52.30
2018-01-15T07:26:30.080Z,52.20
2018-01-15T07:28:58.316Z,52.40
2018-01-15T07:31:28.249Z,52.20
2018-01-15T07:33:56.525Z,52.30
2018-01-15T07:36:24.783Z,52.40
2018-01-15T07:38:54.322Z,52.40
2018-01-15T07:41:22.639Z,52.40
2018-01-15T07:43:50.885Z,52.50
2018-01-15T07:46:19.131Z,52.60
2018-01-15T07:48:47.541Z,52.50
2018-01-15T07:51:15.810Z,52.40
2018-01-15T07:53:44.839Z,52.60
2018-01-15T07:56:13.104Z,52.60
2018-01-15T07:58:41.355Z,52.70
2018-01-15T08:01:10.364Z,52.70
2018-01-15T08:03:38.620Z,52.60
2018-01-15T08:06:06.888Z,52.90
2018-01-15T08:08:35.148Z,52.90
2018-01-15T08:11:03.395Z,52.90
2018-01-15T08:13:31.668Z,52.90
2018-01-15T08:15:59.992Z,52.90
2018-01-15T08:18:28.234Z,53.20
2018-01-15T08:20:56.545Z,53.20
2018-01-15T08:23:25.657Z,53.20
2018-01-15T08:25:54.140Z,53.10
2018-01-15T08:28:22.391Z,53.00
2018-01-15T08:30:50.652Z,53.00
2018-01-15T08:33:18.881Z,52.90
2018-01-15T08:35:47.248Z,52.80
2018-01-15T08:38:15.535Z,52.90
2018-01-15T08:40:44.567Z,52.90
2018-01-15T08:43:12.787Z,52.80
2018-01-15T08:45:41.200Z,53.00
2018-01-15T08:48:09.465Z,52.90
2018-01-15T08:50:37.744Z,52.80
2018-01-15T08:53:06.001Z,52.90
2018-01-15T08:55:34.286Z,52.90
2018-01-15T08:58:02.544Z,52.80
2018-01-15T09:00:31.025Z,52.90
2018-01-15T09:02:59.286Z,52.70
2018-01-15T09:05:27.545Z,52.90
2018-01-15T09:07:55.802Z,52.80
2018-01-15T09:10:24.033Z,52.80
2018-01-15T09:12:53.050Z,53.10
2018-01-15T09:15:21.327Z,53.00
2018-01-15T09:17:49.765Z,52.90
2018-01-15T09:20:18.005Z,53.00
2018-01-15T09:22:46.293Z,52.90
2018-01-15T09:25:14.538Z,52.90
2018-01-15T09:27:42.769Z,52.90
2018-01-15T09:30:11.062Z,52.80
2018-01-15T09:32:39.345Z,53.00
2018-01-15T09:35:07.730Z,53.20
2018-01-15T09:37:35.998Z,52.90
2018-01-15T09:40:04.276Z,52.90
2018-01-15T09:42:32.627Z,52.70
2018-01-15T09:45:00.867Z,52.70
2018-01-15T09:47:29.845Z,52.60
2018-01-15T09:49:58.121Z,52.60
2018-01-15T09:52:26.364Z,52.60
2018-01-15T09:54:54.613Z,52.60
2018-01-15T09:57:22.843Z,52.60
2018-01-15T09:59:51.090Z,52.30
2018-01-15T10:02:20.129Z,52.30
2018-01-15T10:04:48.382Z,52.30
2018-01-15T10:07:16.620Z,52.40
2018-01-15T10:09:46.268Z,52.40
2018-01-15T10:12:15.218Z,52.30
2018-01-15T10:14:44.343Z,52.70
2018-01-15T10:17:12.608Z,52.20
2018-01-15T10:19:40.876Z,52.20
2018-01-15T10:22:09.156Z,52.10
2018-01-15T10:24:38.267Z,52.20
2018-01-15T10:27:06.544Z,52.20
2018-01-15T10:29:34.811Z,52.30
2018-01-15T10:32:03.108Z,52.10
2018-01-15T10:34:32.574Z,52.10
2018-01-15T10:37:00.818Z,52.20
2018-01-15T10:39:29.837Z,52.10
2018-01-15T10:41:58.431Z,52.00
2018-01-15T10:44:28.238Z,52.20
2018-01-15T10:46:56.502Z,52.00
2018-01-15T10:49:24.759Z,52.00
2018-01-15T10:51:53.273Z,51.90
2018-01-15T10:54:22.320Z,52.00
2018-01-15T10:56:50.574Z,52.20
2018-01-15T10:59:18.813Z,52.20
2018-01-15T11:01:47.072Z,52.30
2018-01-15T11:04:15.312Z,52.40
2018-01-15T11:06:43.564Z,52.30
2018-01-15T11:09:11.929Z,52.40
2018-01-15T11:11:40.964Z,52.10
2018-01-15T11:14:09.297Z,52.30
2018-01-15T11:16:37.494Z,52.40
2018-01-15T11:19:06.524Z,52.30
2018-01-15T11:21:35.531Z,52.20
2018-01-15T11:24:05.479Z,52.30
2018-01-15T11:26:33.688Z,52.00
2018-01-15T11:29:01.929Z,52.20
2018-01-15T11:31:30.265Z,52.30
2018-01-15T11:33:58.790Z,52.30
2018-01-15T11:36:26.986Z,52.50
2018-01-15T11:38:55.343Z,52.50
2018-01-15T11:41:23.552Z,52.40
2018-01-15T11:43:51.891Z,52.40
2018-01-15T11:46:20.120Z,52.30
2018-01-15T11:48:48.385Z,52.40
2018-01-15T11:51:16.669Z,52.40
2018-01-15T11:53:44.910Z,52.70
2018-01-15T11:56:13.302Z,52.50
2018-01-15T11:58:41.577Z,52.40
2018-01-15T12:01:09.843Z,52.60
2018-01-15T12:03:38.105Z,52.40
2018-01-15T12:06:06.353Z,52.70
2018-01-15T12:08:34.629Z,52.80
2018-01-15T12:11:02.886Z,52.80
2018-01-15T12:13:31.143Z,52.80
2018-01-15T12:15:59.382Z,53.30
2018-01-15T12:18:27.789Z,53.40
2018-01-15T12:20:56.777Z,53.80
2018-01-15T12:23:25.036Z,53.80
2018-01-15T12:25:54.148Z,54.00
2018-01-15T12:28:22.441Z,53.90
2018-01-15T12:30:51.430Z,54.40
2018-01-15T12:33:19.698Z,54.40
2018-01-15T12:35:47.953Z,54.30
2018-01-15T12:38:16.201Z,54.30
2018-01-15T12:40:44.497Z,54.20
2018-01-15T12:43:12.725Z,54.10
2018-01-15T12:45:40.986Z,54.20
2018-01-15T12:48:09.503Z,54.20
2018-01-15T12:50:37.807Z,54.20
2018-01-15T12:53:06.029Z,54.20
2018-01-15T12:55:34.322Z,54.10
2018-01-15T12:58:02.678Z,53.70
2018-01-15T13:00:30.942Z,54.10
2018-01-15T13:02:59.197Z,53.80
2018-01-15T13:05:39.924Z,54.10
2018-01-15T13:08:20.133Z,54.20
2018-01-15T13:10:48.441Z,54.20
2018-01-15T13:13:16.724Z,54.20
2018-01-15T13:15:45.009Z,54.40
2018-01-15T13:18:13.238Z,54.30
2018-01-15T13:20:41.501Z,54.60
2018-01-15T13:23:09.759Z,54.80
2018-01-15T13:25:38.050Z,54.30
2018-01-15T13:28:06.460Z,54.50
2018-01-15T13:30:34.692Z,54.40
2018-01-15T13:33:02.962Z,54.30
2018-01-15T13:35:31.201Z,54.30
2018-01-15T13:37:59.440Z,54.40
2018-01-15T13:40:27.843Z,54.20
2018-01-15T13:42:57.007Z,54.00
2018-01-15T13:45:25.284Z,54.30
2018-01-15T13:47:53.767Z,54.30
2018-01-15T13:50:21.984Z,54.30
2018-01-15T13:52:50.228Z,54.40
2018-01-15T13:55:19.250Z,54.50
2018-01-15T13:57:47.754Z,54.50
2018-01-15T14:00:15.972Z,54.30
2018-01-15T14:02:44.230Z,54.90
2018-01-15T14:05:12.496Z,54.60
2018-01-15T14:07:40.785Z,54.80
2018-01-15T14:10:09.029Z,55.10
2018-01-15T14:12:37.305Z,54.90
2018-01-15T14:15:05.549Z,55.40
2018-01-15T14:17:33.857Z,55.70
2018-01-15T14:20:02.141Z,55.80
2018-01-15T14:22:30.391Z,56.20
2018-01-15T14:24:58.656Z,55.90
2018-01-15T14:27:27.134Z,56.30
2018-01-15T14:29:55.361Z,56.40
2018-01-15T14:32:23.642Z,56.50
2018-01-15T14:34:51.880Z,56.80
2018-01-15T14:37:20.204Z,57.00
2018-01-15T14:39:48.470Z,57.10
2018-01-15T14:42:16.773Z,57.10
2018-01-15T14:44:44.980Z,57.30
2018-01-15T14:47:13.268Z,57.10
2018-01-15T14:49:41.526Z,56.90
2018-01-15T14:52:09.794Z,57.10
2018-01-15T14:54:39.301Z,57.10
2018-01-15T14:57:07.681Z,57.20
2018-01-15T14:59:36.793Z,57.10
2018-01-15T15:02:05.029Z,57.20
2018-01-15T15:04:34.052Z,57.30
2018-01-15T15:07:02.322Z,57.30
2018-01-15T15:09:30.675Z,57.30
2018-01-15T15:11:58.908Z,57.40
2018-01-15T15:14:27.136Z,57.30
2018-01-15T15:16:56.156Z,57.80
2018-01-15T15:19:24.383Z,57.60
2018-01-15T15:21:53.410Z,58.20
2018-01-15T15:24:22.429Z,57.80
2018-01-15T15:26:50.671Z,57.90
2018-01-15T15:29:18.956Z,57.80
2018-01-15T15:31:47.413Z,58.10
2018-01-15T15:34:15.624Z,58.30
2018-01-15T15:36:43.865Z,58.20
2018-01-15T15:39:14.087Z,58.10
2018-01-15T15:41:42.333Z,58.20
2018-01-15T15:44:11.532Z,58.00
2018-01-15T15:46:39.797Z,58.20
2018-01-15T15:49:08.044Z,58.40
2018-01-15T15:51:36.290Z,58.50
2018-01-15T15:54:04.613Z,58.30
2018-01-15T15:56:33.045Z,58.40
2018-01-15T15:59:01.331Z,58.50
2018-01-15T16:01:30.423Z,58.30
2018-01-15T16:03:58.677Z,58.60
2018-01-15T16:06:26.970Z,58.30
2018-01-15T16:08:55.167Z,58.70
2018-01-15T16:11:24.181Z,58.70
2018-01-15T16:13:52.444Z,58.50
2018-01-15T16:16:20.693Z,58.80
2018-01-15T16:18:48.921Z,58.60
2018-01-15T16:21:17.282Z,58.90
2018-01-15T16:23:45.527Z,58.70
2018-01-15T16:26:13.781Z,58.60
2018-01-15T16:28:43.561Z,58.70
2018-01-15T16:31:11.808Z,58.60
2018-01-15T16:33:40.084Z,58.70
2018-01-15T16:36:08.349Z,58.80
2018-01-15T16:38:36.610Z,58.60
2018-01-15T16:41:04.886Z,58.70
2018-01-15T16:43:33.274Z,59.10
2018-01-15T16:46:01.542Z,58.80
2018-01-15T16:48:30.608Z,58.90
2018-01-15T16:50:59.386Z,58.70
2018-01-15T16:53:27.651Z,58.70
2018-01-15T16:55:55.920Z,58.60
2018-01-15T16:58:24.172Z,58.70
2018-01-15T17:00:52.441Z,58.90
2018-01-15T17:03:21.452Z,59.30
2018-01-15T17:05:49.711Z,59.00
2018-01-15T17:08:17.972Z,59.70
2018-01-15T17:10:46.228Z,59.00
2018-01-15T17:13:14.509Z,59.20
2018-01-15T17:15:42.751Z,59.20
2018-01-15T17:18:11.824Z,59.40
2018-01-15T17:20:40.996Z,59.50
2018-01-15T17:23:10.001Z,59.60
2018-01-15T17:25:39.044Z,59.50
2018-01-15T17:28:07.308Z,59.40
2018-01-15T17:30:35.548Z,59.40
2018-01-15T17:33:03.818Z,59.70
2018-01-15T17:35:32.092Z,59.60
2018-01-15T17:38:00.338Z,59.70
2018-01-15T17:40:28.602Z,59.50
2018-01-15T17:42:56.836Z,59.60
2018-01-15T17:45:25.869Z,59.50
2018-01-15T17:47:54.100Z,59.50
2018-01-15T17:50:22.504Z,58.90
2018-01-15T17:52:51.490Z,59.60
2018-01-15T17:55:19.714Z,59.50
2018-01-15T17:57:48.030Z,59.40
2018-01-15T18:00:16.293Z,59.40
2018-01-15T18:02:45.308Z,59.30
2018-01-15T18:05:14.413Z,59.30
2018-01-15T18:07:42.676Z,59.50
2018-01-15T18:10:11.664Z,59.40
2018-01-15T18:12:39.921Z,59.40
2018-01-15T18:15:08.161Z,59.40
2018-01-15T18:17:36.399Z,59.40
2018-01-15T18:20:04.673Z,59.50
2018-01-15T18:22:33.389Z,59.40
2018-01-15T18:25:01.850Z,59.40
2018-01-15T18:27:30.081Z,60.30
2018-01-15T18:29:58.308Z,59.80
2018-01-15T18:32:26.558Z,59.70
2018-01-15T18:34:55.575Z,60.70
2018-01-15T18:37:23.831Z,59.90
2018-01-15T18:39:52.102Z,60.10
2018-01-15T18:42:21.105Z,60.10
2018-01-15T18:44:49.502Z,60.30
2018-01-15T18:47:17.740Z,60.90
2018-01-15T18:49:46.229Z,60.00
2018-01-15T18:52:14.461Z,60.00
2018-01-15T18:54:42.730Z,59.90
2018-01-15T18:57:10.982Z,60.00
2018-01-15T18:59:39.248Z,59.90
2018-01-15T19:02:08.242Z,60.10
2018-01-15T19:04:36.505Z,60.10
2018-01-15T19:07:04.760Z,60.20
2018-01-15T19:09:33.020Z,60.10
2018-01-15T19:12:01.289Z,59.90
2018-01-15T19:14:29.883Z,60.30
2018-01-15T19:16:58.124Z,60.20
2018-01-15T19:19:26.438Z,60.40
2018-01-15T19:21:54.811Z,60.50
2018-01-15T19:24:23.057Z,60.50
2018-01-15T19:26:51.305Z,60.60
2018-01-15T19:29:20.328Z,60.70
2018-01-15T19:31:48.572Z,60.40
2018-01-15T19:34:17.041Z,60.50
2018-01-15T19:36:45.254Z,60.70
2018-01-15T19:39:14.162Z,60.40
2018-01-15T19:41:42.418Z,60.50
2018-01-15T19:44:16.282Z,60.60
2018-01-15T19:46:51.659Z,60.70
2018-01-15T19:52:30.242Z,60.50
2018-01-15T19:55:04.334Z,60.70
2018-01-15T19:57:38.294Z,60.70
2018-01-15T20:00:12.274Z,60.60
2018-01-15T20:02:46.153Z,61.00
2018-01-15T20:05:20.144Z,60.80
2018-01-15T20:07:54.137Z,60.70
2018-01-15T20:10:28.076Z,61.10
2018-01-15T20:12:56.370Z,60.80
2018-01-15T20:15:24.598Z,61.10
2018-01-15T20:17:53.645Z,60.80
2018-01-15T20:20:22.632Z,60.90
2018-01-15T20:22:50.870Z,60.90
2018-01-15T20:25:19.221Z,60.70
2018-01-15T20:27:47.501Z,60.70
2018-01-15T20:30:15.811Z,61.10
2018-01-15T20:32:44.222Z,60.80
2018-01-15T20:35:12.481Z,61.00
2018-01-15T20:37:40.717Z,61.00
2018-01-15T20:40:08.966Z,61.00
2018-01-15T20:42:37.229Z,61.00
2018-01-15T20:45:05.491Z,61.00
2018-01-15T20:47:33.753Z,61.10
2018-01-15T20:50:01.997Z,61.00
2018-01-15T20:52:30.481Z,60.90
2018-01-15T20:54:58.706Z,61.00
2018-01-15T20:57:26.969Z,61.10
2018-01-15T20:59:55.212Z,60.90
2018-01-15T21:02:24.236Z,61.60
2018-01-15T21:04:52.555Z,60.80
2018-01-15T21:07:20.826Z,60.90
2018-01-15T21:09:49.850Z,60.80
2018-01-15T21:12:18.084Z,60.70
2018-01-15T21:14:47.890Z,60.60
2018-01-15T21:17:16.132Z,60.50
2018-01-15T21:19:44.965Z,60.50
2018-01-15T21:22:13.233Z,60.60
2018-01-15T21:24:42.269Z,60.70
2018-01-15T21:27:10.523Z,60.80
2018-01-15T21:29:38.725Z,60.70
2018-01-15T21:32:07.003Z,60.80
2018-01-15T21:34:35.252Z,60.90
2018-01-15T21:37:04.278Z,61.00
2018-01-15T21:39:33.432Z,60.80
2018-01-15T21:42:01.681Z,61.10
2018-01-15T21:44:29.943Z,60.80
2018-01-15T21:46:58.969Z,61.30
2018-01-15T21:49:27.213Z,61.30
2018-01-15T21:51:55.478Z,61.00
2018-01-15T21:54:23.713Z,60.90
2018-01-15T21:56:52.018Z,60.90
2018-01-15T21:59:20.245Z,61.00
2018-01-15T22:01:48.534Z,61.10
2018-01-15T22:04:17.597Z,61.30
2018-01-15T22:06:45.948Z,61.30
2018-01-15T22:09:14.209Z,61.30
2018-01-15T22:11:42.476Z,61.60
2018-01-15T22:14:11.540Z,61.50
2018-01-15T22:16:39.782Z,61.50
2018-01-15T22:19:08.778Z,61.60
2018-01-15T22:21:37.038Z,61.60
2018-01-15T22:24:05.273Z,61.40
2018-01-15T22:26:33.536Z,61.80
2018-01-15T22:29:01.881Z,61.50
2018-01-15T22:31:30.129Z,62.30
2018-01-15T22:33:58.378Z,61.60
2018-01-15T22:36:27.712Z,61.90
2018-01-15T22:38:56.807Z,61.90
2018-01-15T22:41:25.037Z,61.90
2018-01-15T22:43:53.292Z,61.90
2018-01-15T22:46:21.529Z,61.90
2018-01-15T22:48:49.768Z,62.20
2018-01-15T22:51:18.258Z,61.80
2018-01-15T22:53:46.484Z,62.00
2018-01-15T22:56:14.720Z,62.10
2018-01-15T22:58:42.976Z,62.10
2018-01-15T23:01:11.230Z,62.30
2018-01-15T23:03:39.448Z,62.60
2018-01-15T23:06:07.714Z,62.50
2018-01-15T23:08:35.977Z,62.40
2018-01-15T23:11:04.201Z,62.60
2018-01-15T23:13:34.264Z,62.60
2018-01-15T23:16:02.492Z,62.80
2018-01-15T23:18:30.730Z,62.80
2018-01-15T23:20:59.603Z,62.50
2018-01-15T23:23:27.838Z,63.30
2018-01-15T23:25:59.964Z,62.50
2018-01-15T23:28:28.341Z,62.50
2018-01-15T23:30:57.779Z,62.40
2018-01-15T23:33:26.111Z,62.50
2018-01-15T23:35:54.354Z,62.70
2018-01-15T23:38:22.590Z,62.60
2018-01-15T23:40:51.392Z,62.40
2018-01-15T23:43:19.627Z,62.60
2018-01-15T23:45:48.257Z,62.60
2018-01-15T23:48:16.451Z,62.60
2018-01-15T23:50:45.450Z,62.30
2018-01-15T23:53:13.718Z,62.40
2018-01-15T23:55:42.039Z,62.30
2018-01-15T23:58:12.214Z,62.10
